イスラマバード の空港の天気 - METARとTAF

イスラマバード国際空港 ( OPRN / ISB ) - パキスタン Islamabad
飛行場実況気象(Metar)
観測時間03/29 02:00 PKT (03/28 21:00 UTC)
風向・風速北東 3m/s
視程6000m
天気現象
少しの雲 雲底高度 1070m
全天の8割程度の雲 雲底高度 3960m
気温21℃
湿度56%
気圧-
METAROPRN 282100Z 05006KT 6000 FEW035 BKN130 21/12 Q1013.3/29.92
過去の天気等 Google飛行場航空写真 Wunderground天気予報

過去48時間のMETAR

飛行場予報(TAF)
発表時間: 3/28 20:30 PKT (3/28 15:30 UTC)
予報対象時間: 28日23時 PKT ~ 30日5時 PKT
風向・風速西北西 5m/s
視程4,000m
天気現象煙霧
全天の4割程度の雲 雲底高度 1,220m
全天の8割程度の雲 雲底高度 3,050m
28日23時 PKT ~ 29日5時 PKT に一時的に
風向・風速西北西 5m/s 瞬間風速 13m/s
視程3,000m
29日5時 PKT ~ 29日9時 PKT に徐々に
風向・風速西 5m/s 瞬間風速 10m/s
視程6,000m
少しの雲 雲底高度 1,220m
TAF OPRN 281530Z 2818/2924 30010KT 4000 HZ SCT040 BKN100
TEMPO 2818/2824 30010G25KT 3000 VCTS/RA FEW030TCU/CB SCT040 OVC080
BECMG 2900/2904 28010G20KT 6000 FEW040